Time;durP1;ratioP1;P1;durP2;ratioP2;P2;SDS_P1;SDS_P2;PMS_P1;PMS_P2;Temp;Humidity;BMP_temperature;BMP_pressure;BME280_temperature;BME280_humidity;BME280_pressure;Samples;Min_cycle;Max_cycle;Signal;HPM_P1;HPM_P2
2023/12/28 00:01:22;;;;;;;3.70;1.42;;;;;;;;;;4982289;28;20136;-61
2023/12/28 00:04:09;;;;;;;;;;;;;;;;;;4985833;28;20061;-62
2023/12/28 00:07:03;;;;;;;1.65;1.02;;;;;;;;;;4980275;28;20012;-61
2023/12/28 00:09:57;;;;;;;3.40;1.25;;;;;;;;;;4982787;28;20054;-61
2023/12/28 00:12:51;;;;;;;2.70;0.98;;;;;;;;;;4978748;28;20058;-61
2023/12/28 00:15:38;;;;;;;2.25;0.90;;;;;;;;;;4981276;28;20457;-60
2023/12/28 00:18:32;;;;;;;5.57;1.27;;;;;;;;;;4978595;28;20425;-60
2023/12/28 00:21:19;;;;;;;4.43;0.98;;;;;;;;;;4980591;28;20046;-56
2023/12/28 00:24:20;;;;;;;3.95;1.25;;;;;;;;;;4962067;28;20051;-61
2023/12/28 00:27:07;;;;;;;1.70;0.88;;;;;;;;;;4963536;28;20059;-61
2023/12/28 00:30:01;;;;;;;1.23;0.80;;;;;;;;;;4963261;28;20055;-60
2023/12/28 00:32:48;;;;;;;1.55;0.75;;;;;;;;;;4962734;28;20169;-61
2023/12/28 00:35:42;;;;;;;0.77;0.70;;;;;;;;;;4960171;28;20050;-61
2023/12/28 00:38:29;;;;;;;1.35;0.77;;;;;;;;;;4964435;28;20051;-50
2023/12/28 00:41:23;;;;;;;1.77;0.70;;;;;;;;;;4961687;28;20058;-50
2023/12/28 00:44:10;;;;;;;3.78;1.42;;;;;;;;;;4964313;28;20109;-48
2023/12/28 00:47:06;;;;;;;2.17;0.80;;;;;;;;;;4962476;28;20121;-49
2023/12/28 00:49:51;;;;;;;0.82;0.73;;;;;;;;;;4964677;28;20047;-62
2023/12/28 00:52:45;;;;;;;4.43;0.90;;;;;;;;;;4966707;28;20050;-61
2023/12/28 00:55:39;;;;;;;2.50;0.80;;;;;;;;;;4966069;28;20062;-61
2023/12/28 00:58:26;;;;;;;3.78;0.70;;;;;;;;;;4966804;28;20062;-61
2023/12/28 01:01:00;;;;;;;2.92;0.95;;;;;;;;;;4963922;28;20494;-63
2023/12/28 01:03:27;;;;;;;8.70;1.85;;;;;;;;;;4962155;28;20059;-62
2023/12/28 01:05:55;;;;;;;2.13;0.95;;;;;;;;;;4965104;28;20051;-63
2023/12/28 01:08:29;;;;;;;7.53;1.52;;;;;;;;;;4964079;28;20047;-67
2023/12/28 01:10:56;;;;;;;;;;;;;;;;;;4963922;28;20057;-68
2023/12/28 01:13:30;;;;;;;4.03;1.33;;;;;;;;;;4965145;28;21669;-64
2023/12/28 01:15:58;;;;;;;4.38;1.05;;;;;;;;;;4960994;28;20061;-67
2023/12/28 01:18:32;;;;;;;4.47;0.90;;;;;;;;;;4964558;28;20062;-62
2023/12/28 01:20:59;;;;;;;;;;;;;;;;;;4962308;28;20065;-62
2023/12/28 01:23:40;;;;;;;4.18;0.90;;;;;;;;;;4976478;28;19976;-61
2023/12/28 01:26:12;;;;;;;6.40;1.35;;;;;;;;;;4981374;28;20062;-62
2023/12/28 01:28:46;;;;;;;2.72;0.80;;;;;;;;;;4982606;28;20050;-62
2023/12/28 01:31:13;;;;;;;;;;;;;;;;;;4984253;28;20073;-61
2023/12/28 01:33:40;;;;;;;8.13;1.75;;;;;;;;;;4977955;28;19961;-61
2023/12/28 01:36:16;;;;;;;4.75;1.10;;;;;;;;;;4980613;28;20059;-60
2023/12/28 01:38:43;;;;;;;2.17;1.10;;;;;;;;;;4978854;28;20065;-54
2023/12/28 01:41:17;;;;;;;6.18;1.27;;;;;;;;;;4980715;28;20153;-60
2023/12/28 01:43:44;;;;;;;;;;;;;;;;;;4984375;28;20062;-59
2023/12/28 01:46:19;;;;;;;2.90;0.70;;;;;;;;;;4981691;28;19929;-58
2023/12/28 01:48:47;;;;;;;5.55;1.20;;;;;;;;;;4978720;28;20851;-59
2023/12/28 01:51:15;;;;;;;2.65;1.02;;;;;;;;;;4981468;28;20411;-58
2023/12/28 01:53:50;;;;;;;2.50;1.02;;;;;;;;;;4982189;28;20072;-62
2023/12/28 01:56:18;;;;;;;4.68;1.60;;;;;;;;;;4980026;28;20104;-62
2023/12/28 01:58:52;;;;;;;5.90;1.25;;;;;;;;;;4978830;28;20077;-63
2023/12/28 02:01:20;;;;;;;9.05;1.23;;;;;;;;;;4981904;28;20510;-62
2023/12/28 02:03:47;;;;;;;4.28;1.40;;;;;;;;;;4978936;28;20046;-62
2023/12/28 02:06:23;;;;;;;2.30;0.98;;;;;;;;;;4979869;28;20054;-62
2023/12/28 02:08:50;;;;;;;4.03;0.80;;;;;;;;;;4978158;28;20097;-63
2023/12/28 02:11:24;;;;;;;2.05;1.50;;;;;;;;;;4978950;28;20052;-63
2023/12/28 02:13:51;;;;;;;3.60;1.25;;;;;;;;;;4977266;28;20137;-60
2023/12/28 02:16:37;;;;;;;1.88;0.77;;;;;;;;;;4962191;28;20050;-60
2023/12/28 02:19:13;;;;;;;4.15;0.95;;;;;;;;;;4977736;28;20046;-61
2023/12/28 02:21:55;;;;;;;1.25;0.70;;;;;;;;;;4976243;28;20548;-61
2023/12/28 02:24:28;;;;;;;3.42;0.80;;;;;;;;;;4956732;28;20205;-61
2023/12/28 02:27:02;;;;;;;5.47;0.90;;;;;;;;;;4957141;28;20059;-61
2023/12/28 02:29:29;;;;;;;7.82;1.17;;;;;;;;;;4955156;28;20426;-61
2023/12/28 02:32:01;;;;;;;3.17;0.98;;;;;;;;;;4956578;28;20125;-63
2023/12/28 02:34:38;;;;;;;3.13;1.13;;;;;;;;;;4959473;28;20125;-61
2023/12/28 02:37:05;;;;;;;4.78;1.55;;;;;;;;;;4956259;28;20133;-49
2023/12/28 02:39:39;;;;;;;6.03;1.35;;;;;;;;;;4955405;28;20132;-52
2023/12/28 02:42:07;;;;;;;5.38;1.73;;;;;;;;;;4957297;28;20065;-49
2023/12/28 02:44:40;;;;;;;4.90;1.30;;;;;;;;;;4955075;28;20062;-52
2023/12/28 02:47:07;;;;;;;2.22;1.27;;;;;;;;;;4955911;28;20078;-51
2023/12/28 02:49:41;;;;;;;5.07;1.77;;;;;;;;;;4958015;28;20055;-49
2023/12/28 02:52:08;;;;;;;6.57;0.85;;;;;;;;;;4955499;28;20557;-62
2023/12/28 02:54:42;;;;;;;2.25;1.25;;;;;;;;;;4957925;28;20184;-61
2023/12/28 02:57:09;;;;;;;;;;;;;;;;;;4956799;28;20070;-61
2023/12/28 02:59:36;;;;;;;0.45;0.45;;;;;;;;;;4958282;28;20040;-61
2023/12/28 03:02:10;;;;;;;7.20;1.20;;;;;;;;;;4954867;28;20055;-57
2023/12/28 03:04:37;;;;;;;1.95;0.93;;;;;;;;;;4957863;28;20088;-60
2023/12/28 03:07:05;;;;;;;3.80;0.90;;;;;;;;;;4949131;28;20051;-57
2023/12/28 03:09:39;;;;;;;1.92;0.98;;;;;;;;;;4948936;28;20113;-56
2023/12/28 03:12:07;;;;;;;3.63;0.90;;;;;;;;;;4955565;28;20112;-56
2023/12/28 03:14:41;;;;;;;2.95;0.68;;;;;;;;;;4958198;28;20066;-59
2023/12/28 03:17:09;;;;;;;0.85;0.65;;;;;;;;;;4959507;28;20070;-61
2023/12/28 03:19:43;;;;;;;1.38;1.00;;;;;;;;;;4959046;28;20549;-61
2023/12/28 03:22:10;;;;;;;;;;;;;;;;;;4957959;28;20442;-61
2023/12/28 03:24:51;;;;;;;1.00;0.77;;;;;;;;;;4977442;28;19953;-61
2023/12/28 03:27:18;;;;;;;1.02;0.65;;;;;;;;;;4980648;28;20054;-61
2023/12/28 03:29:52;;;;;;;0.50;0.50;;;;;;;;;;4963545;28;20050;-56
2023/12/28 03:32:19;;;;;;;2.22;1.10;;;;;;;;;;4976866;28;20055;-60
2023/12/28 03:34:46;;;;;;;;;;;;;;;;;;4982502;28;20050;-60
2023/12/28 03:37:20;;;;;;;0.63;0.60;;;;;;;;;;4975989;28;19973;-61
2023/12/28 03:39:47;;;;;;;2.65;0.80;;;;;;;;;;4979954;28;20133;-61
2023/12/28 03:42:22;;;;;;;1.05;1.00;;;;;;;;;;4976662;28;20089;-60
2023/12/28 03:44:49;;;;;;;1.63;0.80;;;;;;;;;;4976903;28;20655;-60
2023/12/28 03:47:16;;;;;;;4.32;1.00;;;;;;;;;;4982148;28;20054;-60
2023/12/28 03:49:56;;;;;;;0.90;0.75;;;;;;;;;;4985732;28;20422;-66
2023/12/28 03:52:27;;;;;;;1.17;0.65;;;;;;;;;;4983228;28;20050;-66
2023/12/28 03:55:01;;;;;;;1.55;0.65;;;;;;;;;;4981618;28;20498;-67
2023/12/28 03:57:29;;;;;;;0.60;0.60;;;;;;;;;;4977979;28;20062;-63
2023/12/28 03:59:56;;;;;;;1.40;0.57;;;;;;;;;;4976029;28;20399;-60
2023/12/28 04:02:31;;;;;;;0.65;0.60;;;;;;;;;;4980440;28;20124;-57
2023/12/28 04:04:58;;;;;;;0.60;0.60;;;;;;;;;;4980854;28;20119;-58
2023/12/28 04:07:26;;;;;;;;;;;;;;;;;;4979427;28;20066;-58
2023/12/28 04:10:00;;;;;;;2.85;0.80;;;;;;;;;;4978157;28;20492;-58
2023/12/28 04:12:28;;;;;;;1.17;0.55;;;;;;;;;;4978804;28;20062;-55
2023/12/28 04:15:02;;;;;;;2.90;0.70;;;;;;;;;;4977531;28;20058;-56
2023/12/28 04:17:29;;;;;;;;;;;;;;;;;;4977222;28;20058;-61
2023/12/28 04:19:56;;;;;;;0.73;0.60;;;;;;;;;;4981339;28;19929;-61
2023/12/28 04:22:43;;;;;;;1.25;0.88;;;;;;;;;;4971651;28;20058;-61
2023/12/28 04:25:17;;;;;;;1.25;0.93;;;;;;;;;;4978394;28;20691;-61
2023/12/28 04:27:51;;;;;;;0.60;0.52;;;;;;;;;;4979450;28;20058;-61
2023/12/28 04:30:18;;;;;;;0.90;0.77;;;;;;;;;;4979996;28;20061;-67
2023/12/28 04:32:46;;;;;;;2.20;1.00;;;;;;;;;;4978464;28;20058;-67
2023/12/28 04:35:20;;;;;;;2.63;0.93;;;;;;;;;;4978386;28;20533;-68
2023/12/28 04:37:47;;;;;;;1.83;0.98;;;;;;;;;;4981319;28;20153;-67
2023/12/28 04:40:14;;;;;;;0.60;0.57;;;;;;;;;;4977959;28;20056;-67
2023/12/28 04:42:49;;;;;;;0.40;0.40;;;;;;;;;;4976804;28;20082;-66
2023/12/28 04:45:16;;;;;;;;;;;;;;;;;;4980499;28;20054;-67
2023/12/28 04:47:50;;;;;;;1.42;0.75;;;;;;;;;;4977967;28;19977;-66
2023/12/28 04:50:18;;;;;;;1.60;0.60;;;;;;;;;;4978824;28;20423;-67
2023/12/28 04:52:45;;;;;;;1.42;0.60;;;;;;;;;;4979872;28;20634;-66
2023/12/28 04:55:20;;;;;;;0.63;0.40;;;;;;;;;;4977556;28;20062;-61
2023/12/28 04:57:47;;;;;;;1.55;0.68;;;;;;;;;;4976455;28;20072;-58
2023/12/28 05:00:21;;;;;;;1.55;0.77;;;;;;;;;;4977855;28;20078;-61
2023/12/28 05:02:48;;;;;;;0.60;0.60;;;;;;;;;;4973632;28;20062;-60
2023/12/28 05:05:15;;;;;;;1.00;0.52;;;;;;;;;;4977486;28;20050;-61
2023/12/28 05:07:49;;;;;;;1.77;0.85;;;;;;;;;;4978606;28;20214;-61
2023/12/28 05:10:16;;;;;;;;;;;;;;;;;;4962052;28;20442;-61
2023/12/28 05:12:50;;;;;;;2.40;0.60;;;;;;;;;;4978239;28;19929;-61
2023/12/28 05:15:28;;;;;;;0.70;0.50;;;;;;;;;;4976185;28;20054;-57
2023/12/28 05:18:02;;;;;;;0.60;0.60;;;;;;;;;;4977855;28;20143;-55
2023/12/28 05:20:32;;;;;;;0.40;0.30;;;;;;;;;;4968037;28;20081;-53
2023/12/28 05:22:59;;;;;;;1.10;0.70;;;;;;;;;;4978696;28;20520;-50
2023/12/28 05:25:33;;;;;;;0.80;0.50;;;;;;;;;;4974856;28;20062;-60
2023/12/28 05:28:20;;;;;;;0.77;0.60;;;;;;;;;;4977352;28;20061;-58
2023/12/28 05:31:14;;;;;;;0.55;0.43;;;;;;;;;;4977377;28;20156;-58
2023/12/28 05:34:02;;;;;;;0.60;0.50;;;;;;;;;;4976151;28;20604;-56
2023/12/28 05:36:55;;;;;;;1.23;0.65;;;;;;;;;;4979108;28;20050;-56
2023/12/28 05:39:49;;;;;;;0.55;0.47;;;;;;;;;;4973950;28;20128;-57
2023/12/28 05:42:37;;;;;;;0.63;0.63;;;;;;;;;;4977482;28;20054;-67
2023/12/28 05:45:30;;;;;;;0.60;0.60;;;;;;;;;;4976379;28;20109;-67
2023/12/28 05:48:17;;;;;;;0.55;0.50;;;;;;;;;;4975263;28;20588;-67
2023/12/28 05:51:11;;;;;;;1.35;0.50;;;;;;;;;;4978348;28;20050;-66
2023/12/28 05:53:58;;;;;;;0.73;0.40;;;;;;;;;;4977554;28;20050;-60
2023/12/28 05:56:52;;;;;;;1.90;0.70;;;;;;;;;;4977096;28;20728;-67
2023/12/28 05:59:40;;;;;;;0.60;0.60;;;;;;;;;;4975415;28;20377;-66
2023/12/28 06:02:33;;;;;;;2.63;0.95;;;;;;;;;;4977033;28;20105;-66
2023/12/28 06:05:20;;;;;;;5.88;0.80;;;;;;;;;;4980549;28;20058;-67
2023/12/28 06:08:14;;;;;;;5.45;0.80;;;;;;;;;;4981558;28;20136;-66
2023/12/28 06:11:02;;;;;;;1.67;0.82;;;;;;;;;;4980274;28;20046;-68
2023/12/28 06:13:55;;;;;;;4.13;1.40;;;;;;;;;;4966480;28;20055;-67
2023/12/28 06:16:42;;;;;;;8.77;1.65;;;;;;;;;;4974508;28;20145;-67
2023/12/28 06:19:36;;;;;;;5.63;1.85;;;;;;;;;;4974159;28;20054;-67
2023/12/28 06:22:30;;;;;;;8.75;1.90;;;;;;;;;;4974767;28;20501;-55
2023/12/28 06:25:31;;;;;;;8.18;2.20;;;;;;;;;;4975043;28;20058;-61
2023/12/28 06:28:18;;;;;;;11.75;2.75;;;;;;;;;;4975022;28;20065;-60
2023/12/28 06:31:12;;;;;;;18.98;2.42;;;;;;;;;;4975875;28;20050;-60
2023/12/28 06:33:59;;;;;;;14.27;2.60;;;;;;;;;;4977483;28;20141;-60
2023/12/28 06:36:53;;;;;;;10.13;2.70;;;;;;;;;;4970500;28;20522;-61
2023/12/28 06:39:40;;;;;;;13.30;2.55;;;;;;;;;;4976780;28;20101;-60
2023/12/28 06:42:34;;;;;;;15.25;3.05;;;;;;;;;;4975489;28;20509;-60
2023/12/28 06:45:26;;;;;;;23.75;3.65;;;;;;;;;;4974572;28;20049;-60
2023/12/28 06:48:15;;;;;;;18.08;2.95;;;;;;;;;;4975663;28;20054;-66
2023/12/28 06:51:02;;;;;;;13.30;2.70;;;;;;;;;;4977458;28;20058;-53
2023/12/28 06:53:56;;;;;;;13.98;2.90;;;;;;;;;;4975077;28;20064;-57
2023/12/28 06:56:43;;;;;;;16.70;3.50;;;;;;;;;;4971592;28;20099;-57
2023/12/28 06:59:37;;;;;;;22.60;3.72;;;;;;;;;;4977022;28;20050;-59
2023/12/28 07:02:27;;;;;;;25.17;4.00;;;;;;;;;;4977281;28;20054;-57
2023/12/28 07:05:20;;;;;;;27.08;4.38;;;;;;;;;;4977817;28;20425;-57
2023/12/28 07:08:07;;;;;;;36.75;5.15;;;;;;;;;;4975303;28;20054;-54
2023/12/28 07:11:03;;;;;;;32.08;6.40;;;;;;;;;;4977987;28;20099;-53
2023/12/28 07:13:50;;;;;;;34.78;5.30;;;;;;;;;;4974129;28;20055;-52
2023/12/28 07:16:45;;;;;;;45.58;5.63;;;;;;;;;;4978270;28;20046;-57
2023/12/28 07:19:31;;;;;;;44.05;7.22;;;;;;;;;;4975478;28;20062;-63
2023/12/28 07:22:32;;;;;;;43.65;7.47;;;;;;;;;;4981464;28;20054;-63
2023/12/28 07:25:28;;;;;;;37.80;6.53;;;;;;;;;;4979856;28;20501;-61
2023/12/28 07:28:21;;;;;;;34.50;7.20;;;;;;;;;;4976783;28;20055;-63
2023/12/28 07:31:08;;;;;;;46.83;7.47;;;;;;;;;;4976357;28;20053;-63
2023/12/28 07:34:02;;;;;;;51.47;8.95;;;;;;;;;;4978612;28;20525;-64
2023/12/28 07:36:49;;;;;;;42.40;8.50;;;;;;;;;;4979416;28;20608;-63
2023/12/28 07:39:43;;;;;;;48.85;9.30;;;;;;;;;;4977472;28;20537;-63
2023/12/28 07:42:30;;;;;;;46.90;10.05;;;;;;;;;;4977219;28;20113;-63
2023/12/28 07:45:24;;;;;;;55.47;16.25;;;;;;;;;;4974121;28;20054;-63
2023/12/28 07:48:12;;;;;;;47.17;17.00;;;;;;;;;;4979473;28;21176;-70
2023/12/28 07:51:05;;;;;;;57.30;13.20;;;;;;;;;;4978564;28;20058;-62
2023/12/28 07:53:52;;;;;;;43.47;13.20;;;;;;;;;;4980558;28;20152;-62
2023/12/28 07:56:46;;;;;;;50.03;13.57;;;;;;;;;;4975355;28;20050;-62
2023/12/28 07:59:33;;;;;;;47.00;11.60;;;;;;;;;;4983701;28;20062;-62
2023/12/28 08:02:27;;;;;;;59.92;14.27;;;;;;;;;;4978657;28;20062;-62
2023/12/28 08:05:14;;;;;;;45.47;11.45;;;;;;;;;;4982247;28;20066;-58
2023/12/28 08:08:08;;;;;;;32.50;10.52;;;;;;;;;;4981264;28;20137;-56
2023/12/28 08:10:55;;;;;;;37.70;9.57;;;;;;;;;;4981436;28;20129;-58
2023/12/28 08:13:56;;;;;;;34.10;9.27;;;;;;;;;;4979252;28;20469;-64
2023/12/28 08:16:43;;;;;;;37.47;9.23;;;;;;;;;;4979481;28;20047;-71
2023/12/28 08:19:37;;;;;;;45.90;11.27;;;;;;;;;;4979713;28;20093;-64
2023/12/28 08:22:24;;;;;;;46.63;17.38;;;;;;;;;;4976459;28;20300;-64
2023/12/28 08:25:43;;;;;;;46.63;16.80;;;;;;;;;;4976301;28;20058;-63
2023/12/28 08:28:30;;;;;;;40.72;16.60;;;;;;;;;;4978403;28;20058;-63
2023/12/28 08:31:24;;;;;;;46.28;12.18;;;;;;;;;;4978199;28;20568;-63
2023/12/28 08:34:15;;;;;;;41.78;11.52;;;;;;;;;;4972601;28;20177;-62
2023/12/28 08:37:08;;;;;;;40.92;10.73;;;;;;;;;;4973278;28;20374;-62
2023/12/28 08:39:56;;;;;;;49.00;10.27;;;;;;;;;;4973680;28;20066;-62
2023/12/28 08:42:49;;;;;;;34.17;9.35;;;;;;;;;;4977623;28;20062;-61
2023/12/28 08:45:43;;;;;;;35.60;9.10;;;;;;;;;;4974863;28;20123;-63
2023/12/28 08:48:30;;;;;;;25.08;8.45;;;;;;;;;;4978264;28;20433;-65
2023/12/28 08:51:24;;;;;;;46.17;10.25;;;;;;;;;;4977650;28;20166;-63
2023/12/28 08:54:11;;;;;;;54.78;10.35;;;;;;;;;;4978101;28;20062;-63
2023/12/28 08:57:05;;;;;;;52.47;10.25;;;;;;;;;;4979587;28;20059;-64
2023/12/28 09:00:10;;;;;;;57.10;17.98;;;;;;;;;;4977202;28;20065;-63
2023/12/28 09:03:04;;;;;;;43.10;9.30;;;;;;;;;;4977409;28;20054;-69
2023/12/28 09:05:51;;;;;;;45.38;9.18;;;;;;;;;;4970659;28;20086;-68
2023/12/28 09:08:47;;;;;;;49.42;9.15;;;;;;;;;;4970140;28;20110;-68
2023/12/28 09:11:40;;;;;;;58.97;9.60;;;;;;;;;;4981069;28;20104;-60
2023/12/28 09:14:34;;;;;;;48.00;9.43;;;;;;;;;;4977970;28;20073;-59
2023/12/28 09:17:22;;;;;;;46.30;8.88;;;;;;;;;;4975732;28;20061;-58
2023/12/28 09:20:15;;;;;;;29.95;8.00;;;;;;;;;;4974861;28;20445;-59
2023/12/28 09:23:10;;;;;;;34.88;8.18;;;;;;;;;;4974415;28;20082;-58
2023/12/28 09:26:04;;;;;;;37.53;7.78;;;;;;;;;;4976322;28;20687;-57
2023/12/28 09:28:51;;;;;;;59.60;17.30;;;;;;;;;;4976761;28;20054;-61
2023/12/28 09:31:46;;;;;;;48.63;11.43;;;;;;;;;;4974294;28;20062;-53
2023/12/28 09:34:33;;;;;;;43.80;8.55;;;;;;;;;;4978266;28;20125;-60
2023/12/28 09:37:27;;;;;;;41.60;11.23;;;;;;;;;;4973938;28;20050;-62
2023/12/28 09:40:15;;;;;;;32.50;8.38;;;;;;;;;;4976294;28;20050;-62
2023/12/28 09:43:14;;;;;;;38.80;8.38;;;;;;;;;;4976962;28;20128;-61
2023/12/28 09:46:02;;;;;;;43.55;8.50;;;;;;;;;;4976081;28;20057;-62
2023/12/28 09:48:56;;;;;;;24.25;6.50;;;;;;;;;;4977746;28;20062;-57
2023/12/28 09:51:42;;;;;;;27.48;7.32;;;;;;;;;;4974030;28;20085;-61
2023/12/28 09:54:36;;;;;;;31.60;5.97;;;;;;;;;;4966618;28;20054;-62
2023/12/28 09:57:23;;;;;;;35.25;7.72;;;;;;;;;;4979812;28;20069;-62
2023/12/28 10:00:17;;;;;;;25.85;4.75;;;;;;;;;;4978955;28;20065;-62
2023/12/28 10:03:05;;;;;;;32.25;5.78;;;;;;;;;;4980695;28;20066;-62
2023/12/28 10:05:58;;;;;;;26.75;5.55;;;;;;;;;;4975781;28;20173;-58
2023/12/28 10:08:49;;;;;;;34.30;5.20;;;;;;;;;;4978670;28;20079;-66
2023/12/28 10:11:42;;;;;;;41.30;7.07;;;;;;;;;;4978008;28;20058;-59
2023/12/28 10:14:29;;;;;;;41.33;7.10;;;;;;;;;;4973499;28;20197;-61
2023/12/28 10:17:23;;;;;;;39.40;6.05;;;;;;;;;;4976303;28;20149;-61
2023/12/28 10:20:11;;;;;;;35.97;6.00;;;;;;;;;;4971615;28;20086;-61
2023/12/28 10:23:17;;;;;;;51.80;6.63;;;;;;;;;;4975104;28;20065;-61
2023/12/28 10:26:12;;;;;;;57.15;7.25;;;;;;;;;;4972744;28;20054;-60
2023/12/28 10:29:05;;;;;;;41.35;7.80;;;;;;;;;;4977074;28;20732;-60
2023/12/28 10:31:53;;;;;;;51.70;7.53;;;;;;;;;;4974326;28;20055;-60
2023/12/28 10:34:47;;;;;;;36.08;6.07;;;;;;;;;;4973632;28;20160;-60
2023/12/28 10:37:36;;;;;;;43.58;6.13;;;;;;;;;;4975361;28;20065;-60
2023/12/28 10:40:36;;;;;;;41.67;6.50;;;;;;;;;;4969976;28;20056;-59
2023/12/28 10:43:21;;;;;;;47.05;6.18;;;;;;;;;;4971179;28;20061;-59
2023/12/28 10:46:19;;;;;;;40.22;5.63;;;;;;;;;;4975490;28;20042;-60
2023/12/28 10:49:10;;;;;;;41.40;6.53;;;;;;;;;;4971249;28;20050;-60
2023/12/28 10:52:08;;;;;;;38.10;5.70;;;;;;;;;;4975008;28;20090;-60
2023/12/28 10:55:03;;;;;;;46.30;6.00;;;;;;;;;;4976600;28;20054;-60
2023/12/28 10:58:01;;;;;;;48.45;6.90;;;;;;;;;;4970527;28;20051;-60
2023/12/28 11:00:50;;;;;;;53.17;6.30;;;;;;;;;;4969864;28;20188;-60
2023/12/28 11:03:48;;;;;;;52.08;7.07;;;;;;;;;;4973003;28;20117;-60
2023/12/28 11:06:35;;;;;;;45.38;6.00;;;;;;;;;;4973524;28;20114;-61
2023/12/28 11:09:31;;;;;;;43.97;7.00;;;;;;;;;;4974059;28;20062;-60
2023/12/28 11:12:18;;;;;;;49.13;6.50;;;;;;;;;;4980801;28;20073;-60
2023/12/28 11:15:14;;;;;;;85.32;6.70;;;;;;;;;;4976737;28;20062;-59
2023/12/28 11:18:07;;;;;;;53.53;6.80;;;;;;;;;;4978557;28;20061;-60
2023/12/28 11:21:07;;;;;;;51.53;5.53;;;;;;;;;;4970431;28;20058;-64
2023/12/28 11:24:02;;;;;;;55.08;5.72;;;;;;;;;;4976750;28;20494;-56
2023/12/28 11:27:02;;;;;;;27.17;3.38;;;;;;;;;;4973870;28;20056;-57
2023/12/28 11:30:07;;;;;;;23.27;3.50;;;;;;;;;;4975662;28;20069;-55
2023/12/28 11:33:09;;;;;;;21.45;3.03;;;;;;;;;;4974248;28;20058;-56
2023/12/28 11:35:55;;;;;;;18.98;2.47;;;;;;;;;;4979114;28;20046;-57
2023/12/28 11:38:51;;;;;;;6.82;1.80;;;;;;;;;;4974174;28;20051;-57
2023/12/28 11:41:38;;;;;;;5.60;1.45;;;;;;;;;;4974997;28;20492;-64
2023/12/28 11:44:37;;;;;;;10.90;1.80;;;;;;;;;;4977467;28;20051;-63
2023/12/28 11:47:25;;;;;;;7.82;1.45;;;;;;;;;;4974495;28;20050;-63
2023/12/28 11:50:19;;;;;;;7.38;1.92;;;;;;;;;;4976707;28;20050;-62
2023/12/28 11:53:06;;;;;;;5.93;1.92;;;;;;;;;;4974227;28;20477;-63
2023/12/28 11:56:02;;;;;;;10.85;2.00;;;;;;;;;;4973930;28;20082;-62
2023/12/28 11:58:48;;;;;;;12.65;1.40;;;;;;;;;;4969526;28;20051;-61
2023/12/28 12:01:43;;;;;;;12.50;1.70;;;;;;;;;;4974262;28;20524;-48
2023/12/28 12:04:30;;;;;;;9.85;2.00;;;;;;;;;;4967455;28;20145;-52
2023/12/28 12:07:25;;;;;;;17.48;2.30;;;;;;;;;;4975916;28;20972;-54
2023/12/28 12:10:16;;;;;;;13.63;1.75;;;;;;;;;;4975754;28;20062;-53
2023/12/28 12:13:09;;;;;;;17.92;2.00;;;;;;;;;;4970181;28;20136;-49
2023/12/28 12:15:57;;;;;;;17.88;2.05;;;;;;;;;;4963729;28;20102;-49
2023/12/28 12:18:50;;;;;;;13.18;1.45;;;;;;;;;;4965523;28;20548;-61
2023/12/28 12:21:38;;;;;;;11.18;1.83;;;;;;;;;;4961091;28;20057;-60
2023/12/28 12:24:33;;;;;;;13.57;1.50;;;;;;;;;;4980130;28;20421;-60
2023/12/28 12:27:27;;;;;;;10.98;1.92;;;;;;;;;;4974631;28;20152;-61
2023/12/28 12:30:21;;;;;;;11.05;1.55;;;;;;;;;;4977502;28;20050;-61
2023/12/28 12:33:09;;;;;;;12.20;1.60;;;;;;;;;;4973166;28;20116;-61
2023/12/28 12:36:02;;;;;;;11.48;1.73;;;;;;;;;;4973022;28;20070;-59
2023/12/28 12:38:50;;;;;;;7.40;1.42;;;;;;;;;;4974751;28;20073;-60
2023/12/28 12:41:43;;;;;;;17.73;1.70;;;;;;;;;;4974745;28;20051;-60
2023/12/28 12:44:30;;;;;;;6.13;1.25;;;;;;;;;;4977315;28;20498;-59
2023/12/28 12:47:24;;;;;;;15.40;1.70;;;;;;;;;;4978567;28;21350;-60
2023/12/28 12:50:12;;;;;;;12.70;1.42;;;;;;;;;;4972605;28;20050;-57
2023/12/28 12:53:05;;;;;;;10.13;1.67;;;;;;;;;;4977648;28;20054;-55
2023/12/28 12:55:55;;;;;;;17.48;1.75;;;;;;;;;;4970857;28;20117;-57
2023/12/28 12:58:48;;;;;;;17.85;1.40;;;;;;;;;;4978994;28;20062;-55
2023/12/28 13:01:42;;;;;;;12.98;1.95;;;;;;;;;;4979509;28;20053;-58
2023/12/28 13:04:29;;;;;;;12.02;1.92;;;;;;;;;;4976966;28;20074;-60
2023/12/28 13:07:23;;;;;;;16.25;1.75;;;;;;;;;;4974777;28;20453;-63
2023/12/28 13:10:17;;;;;;;13.02;1.70;;;;;;;;;;4975853;28;20081;-63
2023/12/28 13:13:07;;;;;;;12.07;1.65;;;;;;;;;;4977260;28;20470;-63
2023/12/28 13:16:01;;;;;;;8.05;1.35;;;;;;;;;;4977302;28;20676;-63
2023/12/28 13:18:48;;;;;;;13.80;1.60;;;;;;;;;;4976136;28;20061;-63
2023/12/28 13:21:43;;;;;;;16.17;1.65;;;;;;;;;;4977351;28;20098;-62
2023/12/28 13:24:37;;;;;;;15.82;2.17;;;;;;;;;;4977458;28;20054;-63
2023/12/28 13:27:31;;;;;;;10.35;1.65;;;;;;;;;;4978332;28;20082;-49
2023/12/28 13:30:18;;;;;;;15.65;1.75;;;;;;;;;;4977148;28;20058;-51
2023/12/28 13:33:12;;;;;;;14.82;1.60;;;;;;;;;;4971289;28;20502;-52
2023/12/28 13:35:59;;;;;;;15.57;1.85;;;;;;;;;;4970629;28;20062;-53
2023/12/28 13:38:53;;;;;;;9.73;1.95;;;;;;;;;;4976111;28;20058;-50
2023/12/28 13:41:40;;;;;;;20.80;2.70;;;;;;;;;;4978510;28;20112;-59
2023/12/28 13:44:38;;;;;;;19.42;2.33;;;;;;;;;;4969937;28;20057;-48
2023/12/28 13:47:25;;;;;;;14.00;2.20;;;;;;;;;;4965751;28;20200;-53
2023/12/28 13:50:20;;;;;;;18.45;1.98;;;;;;;;;;4971861;28;20049;-53
2023/12/28 13:53:08;;;;;;;22.85;2.65;;;;;;;;;;4974414;28;20042;-53
2023/12/28 13:56:02;;;;;;;15.13;1.90;;;;;;;;;;4972964;28;20525;-49
2023/12/28 13:58:48;;;;;;;11.27;2.13;;;;;;;;;;4976446;28;20056;-53
2023/12/28 14:01:42;;;;;;;18.27;2.20;;;;;;;;;;4974205;28;20113;-63
2023/12/28 14:04:29;;;;;;;12.50;2.00;;;;;;;;;;4971459;28;20058;-63
2023/12/28 14:07:24;;;;;;;7.05;1.63;;;;;;;;;;4973869;28;20330;-63
2023/12/28 14:10:11;;;;;;;17.25;3.30;;;;;;;;;;4972103;28;20058;-63
2023/12/28 14:13:05;;;;;;;16.30;2.08;;;;;;;;;;4974878;28;20898;-64
2023/12/28 14:15:52;;;;;;;17.50;2.47;;;;;;;;;;4977510;28;20054;-63
2023/12/28 14:19:08;;;;;;;13.00;2.50;;;;;;;;;;4976374;28;20073;-49
2023/12/28 14:22:01;;;;;;;21.27;2.80;;;;;;;;;;4978064;28;20054;-48
2023/12/28 14:25:02;;;;;;;10.90;1.77;;;;;;;;;;4976861;28;20088;-54
2023/12/28 14:27:49;;;;;;;12.52;2.20;;;;;;;;;;4981284;28;20112;-53
2023/12/28 14:30:44;;;;;;;23.17;2.63;;;;;;;;;;4980204;28;20046;-60
2023/12/28 14:33:39;;;;;;;13.63;2.13;;;;;;;;;;4980361;28;20057;-60
2023/12/28 14:36:32;;;;;;;22.95;2.63;;;;;;;;;;4980367;28;20050;-60
2023/12/28 14:39:20;;;;;;;20.25;3.00;;;;;;;;;;4976939;28;20591;-62
2023/12/28 14:42:13;;;;;;;22.15;2.80;;;;;;;;;;4976241;28;20074;-62
2023/12/28 14:45:01;;;;;;;17.30;2.20;;;;;;;;;;4980227;28;20046;-59
2023/12/28 14:47:54;;;;;;;17.42;2.10;;;;;;;;;;4977378;28;20050;-60
2023/12/28 14:50:41;;;;;;;13.13;2.28;;;;;;;;;;4976976;28;20156;-61
2023/12/28 14:53:35;;;;;;;17.65;3.50;;;;;;;;;;4977139;28;20419;-60
2023/12/28 14:56:22;;;;;;;22.42;3.78;;;;;;;;;;4979167;28;20055;-60
2023/12/28 14:59:21;;;;;;;21.52;3.83;;;;;;;;;;4980808;28;20140;-62
2023/12/28 15:02:09;;;;;;;16.83;2.38;;;;;;;;;;4975304;28;20553;-61
2023/12/28 15:05:02;;;;;;;27.42;3.60;;;;;;;;;;4965362;28;20070;-63
2023/12/28 15:07:49;;;;;;;14.50;2.47;;;;;;;;;;4977746;28;20515;-62
2023/12/28 15:10:43;;;;;;;30.40;3.25;;;;;;;;;;4977695;28;20062;-62
2023/12/28 15:13:31;;;;;;;18.08;3.38;;;;;;;;;;4979191;28;20062;-53
2023/12/28 15:16:24;;;;;;;19.83;2.60;;;;;;;;;;4978618;28;20062;-59
2023/12/28 15:19:13;;;;;;;27.25;3.85;;;;;;;;;;4976696;28;20153;-58
2023/12/28 15:22:06;;;;;;;26.33;3.90;;;;;;;;;;4975856;28;20602;-59
2023/12/28 15:25:00;;;;;;;25.60;3.75;;;;;;;;;;4980308;28;20109;-59
2023/12/28 15:27:53;;;;;;;25.85;2.92;;;;;;;;;;4980130;28;20082;-69
2023/12/28 15:30:40;;;;;;;32.13;3.53;;;;;;;;;;4980894;28;20086;-70
2023/12/28 15:33:34;;;;;;;28.50;3.00;;;;;;;;;;4979821;28;20047;-70
2023/12/28 15:36:22;;;;;;;30.63;3.55;;;;;;;;;;4979450;28;20057;-70
2023/12/28 15:39:15;;;;;;;23.85;3.60;;;;;;;;;;4977555;28;20406;-69
2023/12/28 15:42:03;;;;;;;29.42;3.80;;;;;;;;;;4980881;28;20054;-56
2023/12/28 15:44:56;;;;;;;34.58;3.63;;;;;;;;;;4982850;28;20050;-58
2023/12/28 15:47:43;;;;;;;25.02;3.45;;;;;;;;;;4982862;28;20070;-57
2023/12/28 15:50:37;;;;;;;31.67;3.80;;;;;;;;;;4980540;28;20062;-56
2023/12/28 15:53:31;;;;;;;33.88;4.13;;;;;;;;;;4978503;28;20489;-66
2023/12/28 15:56:18;;;;;;;23.92;3.50;;;;;;;;;;4976395;28;20112;-66
2023/12/28 15:59:12;;;;;;;22.92;3.25;;;;;;;;;;4981582;28;20100;-65
2023/12/28 16:02:00;;;;;;;28.25;3.92;;;;;;;;;;4980456;28;20077;-66
2023/12/28 16:04:54;;;;;;;36.03;4.07;;;;;;;;;;4980637;28;20481;-66
2023/12/28 16:07:41;;;;;;;26.55;4.05;;;;;;;;;;4981544;28;20449;-66
2023/12/28 16:10:35;;;;;;;31.90;3.60;;;;;;;;;;4978576;28;20062;-61
2023/12/28 16:13:25;;;;;;;36.70;3.92;;;;;;;;;;4981346;28;20070;-61
2023/12/28 16:16:20;;;;;;;29.33;4.38;;;;;;;;;;4981476;28;20058;-66
2023/12/28 16:19:08;;;;;;;21.55;3.38;;;;;;;;;;4983957;28;20569;-65
2023/12/28 16:22:02;;;;;;;41.97;4.05;;;;;;;;;;4981613;28;20145;-65
2023/12/28 16:25:00;;;;;;;42.30;3.72;;;;;;;;;;4982726;28;20050;-65
2023/12/28 16:27:49;;;;;;;52.63;4.38;;;;;;;;;;4983499;28;20506;-65